Terminal Aerodrome Forecast
Issued by NWS Cleveland, OH

Home | Current Version | Previous Version | Text Only | Print | Product List | Glossary Off
Versions: 1 2 3 4 5 6 7 8 9 10 11 12 13 14 15

000
FTUS41 KCLE 221100
TAFTOL
TAF
KTOL 221137Z 2212/2312 VRB03KT 5SM BR SKC
     FM221330 19005KT P6SM SKC
     FM221600 22008KT P6SM SCT050
     FM222300 22006KT P6SM BKN250
     FM230800 27008KT P6SM VCSH BKN050 OVC100=

USA.gov is the U.S. government's official web portal to all federal, state and local government web resources and services.